Terminal Aerodrome Forecast
Issued by NWS Louisville, KY

Home | Current Version | Previous Version | Text Only | Print | Product List | Glossary On
Versions: 1 2 3 4 5 6 7 8 9 10 11 12 13 14 15 16 17
000
FTUS43 KLMK 280500
TAFLEX
TAF
KLEX 280520Z 2806/2906 29008KT P6SM SCT060
     FM280900 29006KT 6SM BR BKN020
     FM281500 33011G15KT P6SM BKN040
     FM290100 34007KT P6SM BKN070=

USA.gov is the U.S. government's official web portal to all federal, state and local government web resources and services.